createdAt,value
2023-05-13T00:01:48.191Z,54.75
2023-05-13T00:04:16.732Z,54.62
2023-05-13T00:06:45.089Z,55.01
2023-05-13T00:09:12.646Z,55.01
2023-05-13T00:11:41.604Z,55.24
2023-05-13T00:14:11.088Z,55.77
2023-05-13T00:16:38.699Z,55.80
2023-05-13T00:19:06.158Z,55.91
2023-05-13T00:21:34.627Z,56.32
2023-05-13T00:24:02.161Z,56.36
2023-05-13T00:26:30.448Z,56.22
2023-05-13T00:28:59.155Z,56.56
2023-05-13T00:31:28.848Z,56.97
2023-05-13T00:33:56.552Z,57.21
2023-05-13T00:36:24.458Z,57.26
2023-05-13T00:38:51.711Z,56.85
2023-05-13T00:41:20.346Z,56.89
2023-05-13T00:43:47.709Z,56.97
2023-05-13T00:46:18.085Z,57.25
2023-05-13T00:48:45.735Z,57.32
2023-05-13T00:51:19.783Z,58.06
2023-05-13T00:53:47.929Z,59.05
2023-05-13T00:56:20.227Z,60.10
2023-05-13T00:58:47.978Z,60.11
2023-05-13T01:01:45.605Z,60.04
2023-05-13T01:04:31.656Z,60.38
2023-05-13T01:07:23.186Z,60.34
2023-05-13T01:10:11.758Z,60.07
2023-05-13T01:12:47.144Z,59.90
2023-05-13T01:15:25.733Z,60.44
2023-05-13T01:18:00.464Z,60.54
2023-05-13T01:20:28.904Z,60.42
2023-05-13T01:22:57.257Z,60.52
2023-05-13T01:25:26.093Z,59.92
2023-05-13T01:27:54.382Z,60.65
2023-05-13T01:30:24.250Z,61.28
2023-05-13T01:32:53.747Z,61.33
2023-05-13T01:35:22.669Z,60.99
2023-05-13T01:37:50.978Z,60.66
2023-05-13T01:40:32.459Z,60.95
2023-05-13T01:43:01.109Z,61.49
2023-05-13T01:45:30.449Z,62.13
2023-05-13T01:47:59.095Z,63.18
2023-05-13T01:50:26.808Z,64.63
2023-05-13T01:52:55.042Z,65.17
2023-05-13T01:55:23.614Z,65.87
2023-05-13T01:57:53.027Z,65.75
2023-05-13T02:00:20.628Z,65.91
2023-05-13T02:02:47.798Z,65.81
2023-05-13T02:05:15.434Z,65.31
2023-05-13T02:07:46.936Z,64.94
2023-05-13T02:10:14.410Z,64.80
2023-05-13T02:12:41.795Z,65.75
2023-05-13T02:15:09.852Z,66.30
2023-05-13T02:17:37.571Z,67.61
2023-05-13T02:20:05.621Z,67.08
2023-05-13T02:22:33.189Z,69.95
2023-05-13T02:25:01.574Z,71.26
2023-05-13T02:27:29.146Z,74.38
2023-05-13T02:29:56.437Z,75.98
2023-05-13T02:32:24.004Z,76.83
2023-05-13T02:34:51.381Z,76.14
2023-05-13T02:37:19.056Z,77.46
2023-05-13T02:39:46.241Z,78.41
2023-05-13T02:42:13.907Z,79.79
2023-05-13T02:44:41.691Z,81.22
2023-05-13T02:47:09.349Z,81.88
2023-05-13T02:49:38.771Z,81.14
2023-05-13T02:52:06.750Z,79.11
2023-05-13T02:54:34.052Z,79.01
2023-05-13T02:57:01.744Z,77.98
2023-05-13T02:59:30.137Z,79.60
2023-05-13T03:01:58.675Z,81.50
2023-05-13T03:04:26.337Z,81.86
2023-05-13T03:06:53.856Z,82.05
2023-05-13T03:09:22.203Z,80.97
2023-05-13T03:11:51.081Z,80.74
2023-05-13T03:14:18.690Z,82.02
2023-05-13T03:16:46.185Z,81.87
2023-05-13T03:19:13.597Z,82.79
2023-05-13T03:21:42.489Z,83.75
2023-05-13T03:24:10.065Z,83.65
2023-05-13T03:26:37.425Z,82.87
2023-05-13T03:29:04.859Z,83.04
2023-05-13T03:31:32.724Z,83.15
2023-05-13T03:34:00.736Z,82.07
2023-05-13T03:36:28.425Z,79.71
2023-05-13T03:38:57.824Z,78.24
2023-05-13T03:41:26.363Z,77.42
2023-05-13T03:43:55.868Z,77.11
2023-05-13T03:46:23.591Z,76.67
2023-05-13T03:48:50.918Z,76.09
2023-05-13T03:51:17.964Z,75.27
2023-05-13T03:53:45.015Z,74.79
2023-05-13T03:56:12.543Z,74.02
2023-05-13T03:58:45.833Z,74.46
2023-05-13T04:01:13.117Z,74.43
2023-05-13T04:03:41.591Z,73.64
2023-05-13T04:06:09.059Z,71.97
2023-05-13T04:08:36.588Z,72.12
2023-05-13T04:11:04.256Z,72.95
2023-05-13T04:13:33.091Z,73.51
2023-05-13T04:16:00.445Z,73.73
2023-05-13T04:18:29.444Z,73.61
2023-05-13T04:20:57.080Z,73.52
2023-05-13T04:23:24.322Z,74.17
2023-05-13T04:25:52.861Z,74.44
2023-05-13T04:28:22.297Z,74.58
2023-05-13T04:30:56.792Z,74.68
2023-05-13T04:33:24.113Z,74.37
2023-05-13T04:35:51.438Z,72.65
2023-05-13T04:38:18.929Z,73.02
2023-05-13T04:40:45.964Z,71.93
2023-05-13T04:43:13.730Z,72.60
2023-05-13T04:45:41.263Z,74.26
2023-05-13T04:48:08.872Z,76.18
2023-05-13T04:50:36.561Z,75.22
2023-05-13T04:53:04.385Z,74.77
2023-05-13T04:55:31.984Z,74.67
2023-05-13T04:58:01.349Z,74.04
2023-05-13T05:00:28.863Z,74.50
2023-05-13T05:02:57.149Z,74.58
2023-05-13T05:05:24.751Z,74.41
2023-05-13T05:07:52.180Z,74.47
2023-05-13T05:10:20.904Z,74.68
2023-05-13T05:12:49.066Z,75.31
2023-05-13T05:15:16.626Z,74.72
2023-05-13T05:17:45.792Z,74.67
2023-05-13T05:20:13.976Z,74.10
2023-05-13T05:22:42.487Z,73.90
2023-05-13T05:25:12.031Z,71.52
2023-05-13T05:27:39.673Z,70.64
2023-05-13T05:30:09.549Z,69.58
2023-05-13T05:32:38.178Z,68.89
2023-05-13T05:35:06.002Z,68.28
2023-05-13T05:37:35.570Z,67.71
2023-05-13T05:40:03.083Z,67.06
2023-05-13T05:42:31.398Z,66.09
2023-05-13T05:44:59.001Z,65.71
2023-05-13T05:47:26.440Z,66.00
2023-05-13T05:49:53.787Z,65.78
2023-05-13T05:52:22.202Z,65.76
2023-05-13T05:54:49.639Z,66.06
2023-05-13T05:57:18.279Z,65.29
2023-05-13T05:59:45.640Z,64.93
2023-05-13T06:02:12.856Z,64.00
2023-05-13T06:04:42.386Z,63.03
2023-05-13T06:07:09.835Z,62.81
2023-05-13T06:09:37.537Z,63.91
2023-05-13T06:12:06.372Z,63.94
2023-05-13T06:14:33.932Z,63.45
2023-05-13T06:17:02.520Z,62.74
2023-05-13T06:19:31.983Z,62.75
2023-05-13T06:22:00.492Z,62.03
2023-05-13T06:24:29.377Z,62.02
2023-05-13T06:26:57.832Z,62.23
2023-05-13T06:29:25.339Z,62.18
2023-05-13T06:31:52.816Z,60.33
2023-05-13T06:34:20.265Z,61.67
2023-05-13T06:36:53.938Z,63.61
2023-05-13T06:39:21.477Z,62.37
2023-05-13T06:41:48.737Z,61.52
2023-05-13T06:44:16.221Z,59.57
2023-05-13T06:46:43.756Z,59.35
2023-05-13T06:49:12.143Z,59.74
2023-05-13T06:51:39.748Z,59.04
2023-05-13T06:54:07.210Z,59.56
2023-05-13T06:56:35.016Z,61.09
2023-05-13T06:59:02.626Z,59.35
2023-05-13T07:01:30.012Z,58.28
2023-05-13T07:03:58.700Z,58.32
2023-05-13T07:06:26.159Z,57.98
2023-05-13T07:08:53.585Z,57.92
2023-05-13T07:11:21.427Z,57.73
2023-05-13T07:13:51.003Z,57.47
2023-05-13T07:16:24.578Z,57.37
2023-05-13T07:18:52.120Z,56.97
2023-05-13T07:21:21.424Z,56.77
2023-05-13T07:23:49.822Z,55.91
2023-05-13T07:26:17.892Z,56.65
2023-05-13T07:28:45.661Z,57.51
2023-05-13T07:31:12.987Z,56.31
2023-05-13T07:33:40.495Z,56.16
2023-05-13T07:36:07.909Z,55.53
2023-05-13T07:38:35.451Z,56.45
2023-05-13T07:41:03.003Z,56.86
2023-05-13T07:43:41.961Z,56.63
2023-05-13T07:46:09.585Z,57.31
2023-05-13T07:48:37.415Z,57.81
2023-05-13T07:51:07.111Z,56.56
2023-05-13T07:53:35.937Z,55.60
2023-05-13T07:56:04.558Z,55.14
2023-05-13T07:58:31.880Z,54.26
2023-05-13T08:00:59.695Z,53.79
2023-05-13T08:03:27.224Z,51.97
2023-05-13T08:05:54.987Z,52.35
2023-05-13T08:08:29.969Z,53.43
2023-05-13T08:10:57.362Z,52.68
2023-05-13T08:13:31.615Z,51.85
2023-05-13T08:16:03.098Z,53.03
2023-05-13T08:18:31.835Z,51.40
2023-05-13T08:21:00.231Z,50.38
2023-05-13T08:23:46.540Z,51.41
2023-05-13T08:26:16.199Z,50.45
2023-05-13T08:28:45.031Z,51.55
2023-05-13T08:31:14.705Z,51.34
2023-05-13T08:33:43.908Z,51.65
2023-05-13T08:36:13.527Z,51.70
2023-05-13T08:38:41.524Z,51.23
2023-05-13T08:41:11.777Z,50.60
2023-05-13T08:43:40.141Z,50.32
2023-05-13T08:46:11.381Z,50.17
2023-05-13T08:48:41.271Z,49.86
2023-05-13T08:51:12.866Z,48.89
2023-05-13T08:53:41.336Z,49.14
2023-05-13T08:56:10.112Z,49.73
2023-05-13T08:58:44.591Z,47.73
2023-05-13T09:01:15.190Z,47.44
2023-05-13T09:03:55.692Z,47.34
2023-05-13T09:06:23.560Z,47.16
2023-05-13T09:08:52.154Z,48.82
2023-05-13T09:11:20.065Z,47.85
2023-05-13T09:14:00.614Z,48.95
2023-05-13T09:16:34.289Z,46.70
2023-05-13T09:19:05.705Z,47.44
2023-05-13T09:21:40.403Z,47.02
2023-05-13T09:24:12.825Z,46.47
2023-05-13T09:26:42.673Z,46.80
2023-05-13T09:29:29.556Z,44.13
2023-05-13T09:32:01.794Z,44.41
2023-05-13T09:34:34.935Z,43.24
2023-05-13T09:37:10.683Z,42.43
2023-05-13T09:39:42.527Z,42.07
2023-05-13T09:42:17.366Z,42.10
2023-05-13T09:44:50.310Z,41.95
2023-05-13T09:47:20.572Z,42.49
2023-05-13T09:50:12.015Z,42.01
2023-05-13T09:52:48.205Z,40.75
2023-05-13T09:55:17.122Z,41.28
2023-05-13T09:57:47.931Z,42.03
2023-05-13T10:00:32.265Z,42.23
2023-05-13T10:03:02.725Z,41.70
2023-05-13T10:05:31.857Z,41.90
2023-05-13T10:08:05.006Z,42.57
2023-05-13T10:10:35.047Z,42.93
2023-05-13T10:13:16.765Z,43.75
2023-05-13T10:15:56.399Z,42.51
2023-05-13T10:18:25.112Z,42.93
2023-05-13T10:20:55.598Z,43.50
2023-05-13T10:23:24.875Z,42.35
2023-05-13T10:25:56.353Z,42.38
2023-05-13T10:28:25.852Z,42.72
2023-05-13T10:30:53.289Z,41.98
2023-05-13T10:33:22.294Z,42.14
2023-05-13T10:36:14.013Z,42.24
2023-05-13T10:39:14.506Z,43.06
2023-05-13T10:42:11.363Z,42.23
2023-05-13T10:44:38.629Z,42.40
2023-05-13T10:47:06.010Z,42.80
2023-05-13T10:49:35.533Z,42.19
2023-05-13T10:52:14.724Z,42.71
2023-05-13T10:54:45.021Z,42.91
2023-05-13T10:57:13.858Z,43.41
2023-05-13T11:00:17.100Z,43.20
2023-05-13T11:02:44.399Z,41.77
2023-05-13T11:05:21.681Z,42.61
2023-05-13T11:07:59.254Z,42.04
2023-05-13T11:10:32.231Z,42.71
2023-05-13T11:13:36.010Z,41.71
2023-05-13T11:16:08.509Z,42.29
2023-05-13T11:18:54.730Z,41.80
2023-05-13T11:21:39.972Z,41.82
2023-05-13T11:24:08.436Z,41.12
2023-05-13T11:26:50.778Z,41.30
2023-05-13T11:29:29.056Z,40.32
2023-05-13T11:32:00.490Z,39.31
2023-05-13T11:34:31.841Z,41.55
2023-05-13T11:37:05.090Z,38.76
2023-05-13T11:39:34.371Z,38.58
2023-05-13T11:42:07.127Z,38.64
2023-05-13T11:44:35.406Z,39.73
2023-05-13T11:47:08.571Z,37.95
2023-05-13T11:49:47.550Z,38.62
2023-05-13T11:52:17.809Z,38.72
2023-05-13T11:54:57.799Z,38.07
2023-05-13T11:57:33.084Z,38.40
2023-05-13T12:00:07.908Z,39.09
2023-05-13T12:02:38.098Z,39.66
2023-05-13T12:05:09.999Z,39.03
2023-05-13T12:07:39.967Z,38.67
2023-05-13T12:10:08.474Z,38.63
2023-05-13T12:12:40.489Z,39.25
2023-05-13T12:15:20.198Z,38.37
2023-05-13T12:17:48.738Z,38.91
2023-05-13T12:20:23.707Z,36.94
2023-05-13T12:22:53.469Z,37.21
2023-05-13T12:25:44.581Z,37.54
2023-05-13T12:28:25.838Z,37.91
2023-05-13T12:30:56.773Z,35.50
2023-05-13T12:33:43.862Z,36.90
2023-05-13T12:36:34.003Z,34.61
2023-05-13T12:39:09.722Z,35.07
2023-05-13T12:41:41.699Z,35.59
2023-05-13T12:44:14.004Z,34.13
2023-05-13T12:46:55.417Z,34.22
2023-05-13T12:49:22.790Z,33.55
2023-05-13T12:51:51.952Z,33.18
2023-05-13T12:54:19.367Z,32.24
2023-05-13T12:56:46.792Z,32.79
2023-05-13T12:59:14.740Z,33.53
2023-05-13T13:01:43.176Z,33.24
2023-05-13T13:04:10.778Z,33.31
2023-05-13T13:06:44.242Z,32.58
2023-05-13T13:09:13.813Z,32.42
2023-05-13T13:11:41.164Z,31.96
2023-05-13T13:14:08.713Z,32.22
2023-05-13T13:16:36.447Z,32.11
2023-05-13T13:19:03.996Z,31.72
2023-05-13T13:21:31.298Z,30.79
2023-05-13T13:23:58.333Z,31.19
2023-05-13T13:26:25.801Z,31.00
2023-05-13T13:28:54.153Z,30.52
2023-05-13T13:31:22.274Z,30.60
2023-05-13T13:33:49.601Z,31.71
2023-05-13T13:36:19.817Z,31.61
2023-05-13T13:38:48.150Z,32.21
2023-05-13T13:41:15.718Z,32.49
2023-05-13T13:43:49.333Z,32.50
2023-05-13T13:46:16.919Z,33.03
2023-05-13T13:48:44.513Z,33.11
2023-05-13T13:51:18.999Z,33.13
2023-05-13T13:53:47.827Z,32.71
2023-05-13T13:56:15.460Z,32.28
2023-05-13T13:58:49.503Z,32.09
2023-05-13T14:01:17.195Z,32.75
2023-05-13T14:03:45.235Z,32.57
2023-05-13T14:06:13.749Z,33.32
2023-05-13T14:08:41.140Z,33.37
2023-05-13T14:11:08.716Z,33.64
2023-05-13T14:13:36.532Z,34.68
2023-05-13T14:16:05.068Z,34.31
2023-05-13T14:18:38.332Z,34.52
2023-05-13T14:21:05.688Z,34.87
2023-05-13T14:23:34.265Z,34.73
2023-05-13T14:26:08.985Z,34.44
2023-05-13T14:28:43.261Z,35.11
2023-05-13T14:31:10.717Z,34.36
2023-05-13T14:33:38.473Z,35.45
2023-05-13T14:36:08.386Z,35.55
2023-05-13T14:38:35.940Z,36.66
2023-05-13T14:41:04.500Z,36.06
2023-05-13T14:43:31.689Z,36.67
2023-05-13T14:45:59.236Z,36.26
2023-05-13T14:48:27.716Z,36.55
2023-05-13T14:50:55.161Z,36.50
2023-05-13T14:53:23.281Z,36.94
2023-05-13T14:55:51.562Z,35.96
2023-05-13T14:58:20.155Z,35.73
2023-05-13T15:00:49.072Z,36.21
2023-05-13T15:03:16.520Z,36.27
2023-05-13T15:05:45.071Z,36.24
2023-05-13T15:08:12.481Z,36.68
2023-05-13T15:10:39.902Z,35.69
2023-05-13T15:13:07.359Z,36.67
2023-05-13T15:15:35.931Z,36.90
2023-05-13T15:18:04.490Z,36.21
2023-05-13T15:20:31.760Z,36.71
2023-05-13T15:23:00.405Z,37.06
2023-05-13T15:25:30.832Z,37.19
2023-05-13T15:27:58.977Z,37.08
2023-05-13T15:30:28.600Z,37.50
2023-05-13T15:32:56.106Z,36.60
2023-05-13T15:35:25.567Z,36.92
2023-05-13T15:37:52.993Z,36.37
2023-05-13T15:40:20.612Z,37.60
2023-05-13T15:42:48.748Z,37.14
2023-05-13T15:45:17.303Z,37.65
2023-05-13T15:47:44.973Z,37.42
2023-05-13T15:50:13.194Z,38.01
2023-05-13T15:52:40.515Z,38.28
2023-05-13T15:55:09.279Z,37.65
2023-05-13T15:57:36.627Z,37.59
2023-05-13T16:00:04.009Z,37.46
2023-05-13T16:02:37.765Z,37.94
2023-05-13T16:05:05.545Z,38.26
2023-05-13T16:07:33.234Z,38.99
2023-05-13T16:10:00.571Z,38.63
2023-05-13T16:12:31.432Z,38.07
2023-05-13T16:14:58.586Z,38.90
2023-05-13T16:17:26.150Z,39.13
2023-05-13T16:19:53.425Z,38.58
2023-05-13T16:22:38.406Z,39.02
2023-05-13T16:25:12.227Z,39.38
2023-05-13T16:27:39.615Z,39.49
2023-05-13T16:30:08.863Z,39.83
2023-05-13T16:32:36.040Z,40.02
2023-05-13T16:35:04.295Z,39.82
2023-05-13T16:37:35.420Z,39.86
2023-05-13T16:40:03.280Z,40.03
2023-05-13T16:42:30.779Z,40.09
2023-05-13T16:44:58.216Z,40.17
2023-05-13T16:47:25.376Z,40.79
2023-05-13T16:50:00.673Z,41.25
2023-05-13T16:52:27.827Z,41.35
2023-05-13T16:54:58.437Z,41.33
2023-05-13T16:57:26.298Z,41.06
2023-05-13T16:59:53.748Z,40.75
2023-05-13T17:02:20.797Z,40.95
2023-05-13T17:04:47.935Z,40.69
2023-05-13T17:07:15.428Z,40.84
2023-05-13T17:09:42.660Z,40.90
2023-05-13T17:12:10.057Z,41.68
2023-05-13T17:14:37.145Z,41.75
2023-05-13T17:17:05.862Z,41.64
2023-05-13T17:19:39.227Z,41.76
2023-05-13T17:22:06.716Z,42.03
2023-05-13T17:24:34.231Z,41.94
2023-05-13T17:27:01.585Z,42.61
2023-05-13T17:29:28.781Z,42.40
2023-05-13T17:31:56.109Z,42.68
2023-05-13T17:34:23.354Z,42.80
2023-05-13T17:36:50.510Z,42.84
2023-05-13T17:39:17.858Z,43.11
2023-05-13T17:41:45.302Z,43.34
2023-05-13T17:44:14.045Z,43.38
2023-05-13T17:46:41.216Z,43.98
2023-05-13T17:49:08.896Z,44.83
2023-05-13T17:51:36.703Z,43.98
2023-05-13T17:54:04.304Z,44.24
2023-05-13T17:56:32.667Z,44.59
2023-05-13T17:59:00.265Z,44.53
2023-05-13T18:01:27.748Z,44.54
2023-05-13T18:03:55.911Z,44.74
2023-05-13T18:06:24.316Z,44.99
2023-05-13T18:08:51.625Z,44.75
2023-05-13T18:11:19.277Z,44.56
2023-05-13T18:13:47.533Z,44.92
2023-05-13T18:16:16.138Z,45.27
2023-05-13T18:18:45.091Z,45.52
2023-05-13T18:21:12.512Z,45.46
2023-05-13T18:23:39.992Z,46.19
2023-05-13T18:26:07.398Z,46.33
2023-05-13T18:28:34.861Z,46.45
2023-05-13T18:31:02.379Z,46.45
2023-05-13T18:33:29.818Z,46.44
2023-05-13T18:35:57.626Z,46.80
2023-05-13T18:38:25.312Z,46.92
2023-05-13T18:40:53.666Z,47.18
2023-05-13T18:43:21.297Z,47.16
2023-05-13T18:45:48.733Z,47.27
2023-05-13T18:48:18.101Z,47.45
2023-05-13T18:50:46.547Z,47.78
2023-05-13T18:53:14.080Z,48.07
2023-05-13T18:55:41.552Z,48.23
2023-05-13T18:58:09.069Z,48.67
2023-05-13T19:00:37.687Z,48.78
2023-05-13T19:03:05.204Z,49.01
2023-05-13T19:05:33.391Z,49.44
2023-05-13T19:08:01.020Z,49.70
2023-05-13T19:10:29.991Z,50.00
2023-05-13T19:12:57.454Z,50.29
2023-05-13T19:15:27.411Z,50.51
2023-05-13T19:18:01.449Z,50.29
2023-05-13T19:20:30.048Z,50.56
2023-05-13T19:22:57.768Z,50.71
2023-05-13T19:25:25.465Z,50.87
2023-05-13T19:27:53.952Z,51.04
2023-05-13T19:30:22.870Z,51.82
2023-05-13T19:32:50.277Z,52.05
2023-05-13T19:35:17.877Z,52.08
2023-05-13T19:37:45.263Z,52.58
2023-05-13T19:40:14.682Z,52.45
2023-05-13T19:42:42.363Z,52.41
2023-05-13T19:45:11.141Z,52.19
2023-05-13T19:47:39.734Z,52.82
2023-05-13T19:50:09.382Z,52.64
2023-05-13T19:52:36.920Z,52.97
2023-05-13T19:55:04.826Z,53.65
2023-05-13T19:57:32.575Z,53.71
2023-05-13T20:00:00.237Z,53.82
2023-05-13T20:02:28.844Z,54.30
2023-05-13T20:04:57.828Z,54.29
2023-05-13T20:07:25.433Z,54.44
2023-05-13T20:09:54.067Z,54.33
2023-05-13T20:12:21.918Z,55.11
2023-05-13T20:14:52.256Z,55.31
2023-05-13T20:17:21.652Z,55.54
2023-05-13T20:19:54.451Z,55.71
2023-05-13T20:22:22.538Z,56.34
2023-05-13T20:24:54.769Z,56.70
2023-05-13T20:27:22.983Z,57.56
2023-05-13T20:29:51.395Z,60.04
2023-05-13T20:32:25.065Z,60.13
2023-05-13T20:34:52.879Z,60.76
2023-05-13T20:37:23.503Z,61.00
2023-05-13T20:39:52.709Z,61.33
2023-05-13T20:42:23.702Z,61.69
2023-05-13T20:44:51.822Z,62.01
2023-05-13T20:47:20.059Z,61.81
2023-05-13T20:49:47.386Z,62.17
2023-05-13T20:52:15.128Z,62.19
2023-05-13T20:54:43.429Z,62.27
2023-05-13T20:57:11.883Z,61.57
2023-05-13T20:59:41.503Z,62.97
2023-05-13T21:02:08.943Z,64.29
2023-05-13T21:04:36.862Z,64.86
2023-05-13T21:07:05.377Z,65.18
2023-05-13T21:09:33.019Z,66.54
2023-05-13T21:12:00.474Z,67.24
2023-05-13T21:14:27.740Z,68.04
2023-05-13T21:16:55.856Z,68.90
2023-05-13T21:19:25.424Z,69.71
2023-05-13T21:21:54.873Z,69.77
2023-05-13T21:24:24.268Z,71.04
2023-05-13T21:26:52.500Z,72.06
2023-05-13T21:29:19.777Z,71.57
2023-05-13T21:31:48.091Z,71.13
2023-05-13T21:34:15.578Z,70.64
2023-05-13T21:36:45.483Z,70.81
2023-05-13T21:39:14.029Z,71.34
2023-05-13T21:41:41.749Z,71.24
2023-05-13T21:44:10.137Z,71.02
2023-05-13T21:46:37.511Z,71.30
2023-05-13T21:49:05.193Z,71.68
2023-05-13T21:51:33.640Z,72.21
2023-05-13T21:54:01.225Z,71.81
2023-05-13T21:56:36.180Z,72.61
2023-05-13T21:59:03.559Z,72.61
2023-05-13T22:01:31.015Z,72.94
2023-05-13T22:03:58.189Z,73.25
2023-05-13T22:06:25.587Z,73.56
2023-05-13T22:09:02.040Z,74.50
2023-05-13T22:11:29.632Z,74.99
2023-05-13T22:13:58.030Z,77.46
2023-05-13T22:16:27.733Z,80.37
2023-05-13T22:18:58.889Z,81.42
2023-05-13T22:21:26.375Z,81.79
2023-05-13T22:23:53.994Z,81.00
2023-05-13T22:26:22.148Z,80.30
2023-05-13T22:28:50.576Z,79.81
2023-05-13T22:31:24.329Z,79.36
2023-05-13T22:33:52.062Z,78.84
2023-05-13T22:36:19.464Z,79.07
2023-05-13T22:38:47.150Z,78.88
2023-05-13T22:41:15.416Z,78.67
2023-05-13T22:43:42.914Z,79.30
2023-05-13T22:46:10.329Z,79.43
2023-05-13T22:48:37.845Z,79.44
2023-05-13T22:51:05.471Z,79.01
2023-05-13T22:53:32.861Z,79.12
2023-05-13T22:56:00.225Z,79.31
2023-05-13T22:58:27.842Z,78.73
2023-05-13T23:00:55.193Z,78.71
2023-05-13T23:03:22.250Z,78.56
2023-05-13T23:05:49.658Z,78.86
2023-05-13T23:08:18.069Z,79.19
2023-05-13T23:10:45.631Z,80.18
2023-05-13T23:13:13.156Z,80.37
2023-05-13T23:15:41.692Z,80.27
2023-05-13T23:18:09.024Z,80.17
2023-05-13T23:20:37.444Z,80.62
2023-05-13T23:23:05.957Z,81.37
2023-05-13T23:25:33.320Z,83.42
2023-05-13T23:28:01.043Z,86.77
2023-05-13T23:30:29.909Z,88.13
2023-05-13T23:32:57.486Z,88.65
2023-05-13T23:35:24.932Z,87.19
2023-05-13T23:37:52.191Z,87.22
2023-05-13T23:40:19.859Z,88.21
2023-05-13T23:42:47.223Z,87.39
2023-05-13T23:45:14.879Z,88.09
2023-05-13T23:47:42.423Z,88.26
2023-05-13T23:50:10.172Z,88.39
2023-05-13T23:52:37.674Z,88.35
2023-05-13T23:55:06.168Z,90.13
2023-05-13T23:57:33.832Z,92.07
